Radway, Canada
Current Conditions -  °F | °C
As of 1:00 PM on Thursday 29 Jan 2015 (Local Time) from CYED Reporting Station
Haze Haze  
Wind Chill: 21°   Ceiling: 600
Heat Index: 27°   Visibility: 3mi
Dew Point: 23°   Wind: 5mph
Humidity: 86%   Direction: 190°S
Pressure: 30.18"   Gusts: NA
Location:  54.06°N, 112.95°W
Report Text: CYED 292000Z 19004KT 3SM BR OVC006 M03/M05 A3018 RMK ST8DA379FT SLP261
Loading
Personal Weather Stations






























Interactive Weather Map New forecast layout! Learn more

10-Day Weather Forecast

Advertisements
Track Severe Weather on mobile